createdAt,value
2022-08-22T00:01:48.863Z,66.23
2022-08-22T00:02:56.264Z,60.51
2022-08-22T00:04:24.425Z,66.73
2022-08-22T00:07:11.695Z,66.95
2022-08-22T00:09:48.071Z,66.68
2022-08-22T00:12:45.747Z,67.35
2022-08-22T00:15:43.111Z,67.61
2022-08-22T00:18:36.329Z,67.60
2022-08-22T00:21:05.675Z,68.10
2022-08-22T00:24:25.330Z,68.48
2022-08-22T00:27:16.121Z,69.14
2022-08-22T00:29:48.983Z,69.62
2022-08-22T00:32:27.204Z,69.92
2022-08-22T00:35:03.998Z,70.74
2022-08-22T00:37:34.212Z,70.55
2022-08-22T00:40:39.794Z,70.91
2022-08-22T00:43:28.083Z,70.23
2022-08-22T00:46:39.871Z,71.60
2022-08-22T00:49:42.005Z,70.98
2022-08-22T00:52:25.499Z,71.46
2022-08-22T00:55:17.290Z,71.39
2022-08-22T00:57:46.636Z,71.60
2022-08-22T01:00:19.526Z,71.67
2022-08-22T01:02:58.087Z,71.43
2022-08-22T01:08:12.261Z,72.75
2022-08-22T01:10:54.191Z,73.22
2022-08-22T01:13:42.258Z,73.55
2022-08-22T01:16:31.139Z,73.93
2022-08-22T01:19:20.550Z,73.02
2022-08-22T01:22:17.859Z,74.08
2022-08-22T01:25:18.443Z,74.14
2022-08-22T01:28:20.083Z,74.33
2022-08-22T01:31:47.200Z,74.59
2022-08-22T01:34:32.487Z,75.51
2022-08-22T01:37:11.031Z,75.58
2022-08-22T01:39:55.370Z,76.08
2022-08-22T01:42:24.528Z,77.14
2022-08-22T01:45:25.677Z,77.37
2022-08-22T01:48:03.889Z,77.90
2022-08-22T01:50:42.330Z,77.74
2022-08-22T01:53:22.749Z,78.00
2022-08-22T01:56:11.055Z,76.83
2022-08-22T01:58:45.285Z,77.77
2022-08-22T02:01:18.059Z,77.18
2022-08-22T02:04:14.338Z,77.87
2022-08-22T02:06:44.732Z,78.15
2022-08-22T02:09:30.055Z,76.40
2022-08-22T02:12:02.614Z,77.37
2022-08-22T02:14:33.367Z,77.70
2022-08-22T02:17:24.552Z,77.75
2022-08-22T02:20:00.121Z,77.27
2022-08-22T02:22:37.038Z,77.68
2022-08-22T02:25:19.674Z,77.82
2022-08-22T02:27:55.181Z,77.23
2022-08-22T02:30:28.403Z,77.04
2022-08-22T02:33:34.430Z,76.96
2022-08-22T02:36:16.368Z,77.24
2022-08-22T02:39:04.998Z,77.01
2022-08-22T02:41:49.785Z,77.91
2022-08-22T02:44:25.602Z,78.29
2022-08-22T02:46:55.110Z,77.68
2022-08-22T02:49:53.083Z,78.88
2022-08-22T02:52:32.236Z,78.23
2022-08-22T02:55:12.455Z,78.32
2022-08-22T02:57:39.398Z,77.69
2022-08-22T03:00:32.828Z,78.49
2022-08-22T03:02:59.670Z,78.61
2022-08-22T03:05:26.291Z,79.15
2022-08-22T03:08:04.838Z,78.08
2022-08-22T03:10:38.082Z,77.63
2022-08-22T03:13:32.448Z,77.57
2022-08-22T03:16:06.552Z,77.85
2022-08-22T03:18:45.460Z,77.27
2022-08-22T03:21:15.828Z,77.92
2022-08-22T03:23:48.913Z,77.69
2022-08-22T03:26:24.686Z,77.62
2022-08-22T03:28:59.539Z,78.36
2022-08-22T03:31:29.116Z,77.82
2022-08-22T03:34:16.880Z,77.67
2022-08-22T03:37:08.668Z,78.64
2022-08-22T03:40:07.729Z,77.95
2022-08-22T03:42:52.979Z,78.13
2022-08-22T03:46:13.530Z,78.68
2022-08-22T03:49:10.263Z,79.24
2022-08-22T03:52:00.608Z,78.74
2022-08-22T03:54:40.391Z,79.97
2022-08-22T03:57:50.358Z,79.99
2022-08-22T04:00:41.958Z,79.56
2022-08-22T04:03:23.962Z,79.38
2022-08-22T04:06:11.494Z,79.80
2022-08-22T04:09:12.716Z,80.41
2022-08-22T04:12:24.212Z,79.56
2022-08-22T04:15:14.244Z,79.45
2022-08-22T04:18:14.153Z,80.25
2022-08-22T04:21:02.691Z,80.73
2022-08-22T04:23:48.107Z,79.96
2022-08-22T04:26:26.565Z,80.37
2022-08-22T04:29:02.882Z,80.55
2022-08-22T04:31:36.576Z,79.65
2022-08-22T04:34:12.167Z,79.80
2022-08-22T04:36:50.084Z,80.34
2022-08-22T04:39:24.571Z,80.33
2022-08-22T04:42:31.653Z,79.56
2022-08-22T04:45:08.075Z,80.06
2022-08-22T04:47:43.242Z,79.63
2022-08-22T04:50:18.360Z,80.60
2022-08-22T04:53:17.233Z,80.21
2022-08-22T04:55:46.872Z,80.04
2022-08-22T04:58:37.210Z,81.23
2022-08-22T05:01:06.427Z,80.07
2022-08-22T05:03:41.888Z,79.60
2022-08-22T05:06:13.635Z,80.21
2022-08-22T05:08:41.762Z,80.33
2022-08-22T05:11:11.607Z,79.35
2022-08-22T05:13:41.296Z,79.72
2022-08-22T05:16:14.768Z,78.44
2022-08-22T05:18:47.958Z,78.79
2022-08-22T05:21:18.285Z,79.10
2022-08-22T05:24:01.410Z,78.91
2022-08-22T05:26:34.286Z,78.88
2022-08-22T05:29:03.833Z,77.25
2022-08-22T05:31:35.139Z,77.25
2022-08-22T05:34:11.968Z,76.49
2022-08-22T05:36:44.892Z,76.69
2022-08-22T05:39:18.898Z,76.64
2022-08-22T05:41:46.669Z,77.39
2022-08-22T05:44:18.293Z,75.65
2022-08-22T05:46:57.196Z,75.88
2022-08-22T05:49:37.188Z,75.97
2022-08-22T05:52:32.369Z,74.99
2022-08-22T05:55:07.944Z,74.51
2022-08-22T05:57:41.669Z,74.29
2022-08-22T06:00:12.914Z,73.97
2022-08-22T06:03:00.723Z,73.85
2022-08-22T06:05:35.952Z,72.98
2022-08-22T06:08:10.244Z,73.50
2022-08-22T06:10:49.371Z,72.98
2022-08-22T06:13:34.309Z,73.28
2022-08-22T06:16:25.043Z,72.59
2022-08-22T06:18:52.762Z,72.01
2022-08-22T06:21:27.041Z,71.26
2022-08-22T06:24:02.565Z,70.70
2022-08-22T06:26:38.228Z,70.71
2022-08-22T06:29:07.377Z,71.06
2022-08-22T06:31:44.697Z,70.26
2022-08-22T06:34:15.086Z,70.83
2022-08-22T06:36:46.735Z,69.86
2022-08-22T06:39:24.066Z,69.92
2022-08-22T06:41:59.162Z,69.64
2022-08-22T06:44:55.048Z,70.32
2022-08-22T06:47:25.975Z,72.46
2022-08-22T06:50:02.029Z,71.20
2022-08-22T06:52:33.214Z,71.89
2022-08-22T06:55:04.691Z,71.70
2022-08-22T06:57:43.665Z,71.83
2022-08-22T07:00:17.086Z,71.21
2022-08-22T07:02:53.020Z,71.67
2022-08-22T07:05:23.549Z,71.12
2022-08-22T07:07:50.937Z,69.65
2022-08-22T07:10:18.055Z,70.21
2022-08-22T07:12:48.453Z,70.14
2022-08-22T07:15:50.749Z,69.96
2022-08-22T07:18:21.341Z,69.23
2022-08-22T07:20:54.532Z,68.51
2022-08-22T07:23:33.904Z,69.17
2022-08-22T07:26:12.315Z,69.53
2022-08-22T07:28:58.753Z,68.65
2022-08-22T07:31:31.797Z,68.08
2022-08-22T07:34:16.760Z,65.61
2022-08-22T07:36:59.338Z,66.83
2022-08-22T07:39:42.244Z,64.64
2022-08-22T07:42:17.635Z,65.17
2022-08-22T07:44:53.316Z,64.15
2022-08-22T07:47:26.608Z,64.44
2022-08-22T07:50:00.112Z,64.55
2022-08-22T07:52:35.911Z,65.28
2022-08-22T07:55:26.395Z,64.70
2022-08-22T07:57:55.460Z,63.97
2022-08-22T08:00:24.440Z,64.22
2022-08-22T08:02:54.259Z,62.82
2022-08-22T08:05:24.062Z,63.51
2022-08-22T08:07:54.317Z,60.45
2022-08-22T08:10:32.616Z,58.80
2022-08-22T08:13:03.734Z,56.09
2022-08-22T08:15:33.786Z,54.48
2022-08-22T08:18:06.254Z,53.37
2022-08-22T08:20:36.406Z,51.04
2022-08-22T08:23:06.790Z,50.46
2022-08-22T08:25:49.075Z,52.89
2022-08-22T08:28:34.219Z,47.61
2022-08-22T08:31:12.553Z,44.39
2022-08-22T08:33:42.542Z,45.58
2022-08-22T08:36:16.540Z,45.02
2022-08-22T08:38:43.071Z,42.54
2022-08-22T08:41:27.313Z,42.35
2022-08-22T08:44:15.309Z,42.18
2022-08-22T08:46:58.834Z,38.15
2022-08-22T08:49:52.888Z,36.44
2022-08-22T08:52:46.874Z,38.44
2022-08-22T08:56:00.524Z,37.34
2022-08-22T08:59:01.676Z,29.50
2022-08-22T09:01:47.248Z,32.53
2022-08-22T09:04:19.805Z,32.32
2022-08-22T09:07:07.777Z,35.27
2022-08-22T09:09:57.394Z,37.98
2022-08-22T09:12:43.442Z,43.04
2022-08-22T09:15:31.470Z,42.05
2022-08-22T09:18:21.512Z,40.03
2022-08-22T09:21:06.524Z,35.19
2022-08-22T09:23:38.195Z,37.41
2022-08-22T09:26:43.971Z,37.55
2022-08-22T09:29:34.107Z,33.19
2022-08-22T09:32:21.496Z,34.78
2022-08-22T09:35:16.394Z,35.50
2022-08-22T09:37:51.699Z,38.93
2022-08-22T09:40:43.303Z,40.09
2022-08-22T09:43:29.515Z,42.05
2022-08-22T09:46:21.895Z,42.68
2022-08-22T09:49:06.579Z,42.26
2022-08-22T09:51:43.626Z,41.89
2022-08-22T09:54:40.591Z,41.50
2022-08-22T09:57:14.003Z,37.63
2022-08-22T09:59:47.379Z,39.01
2022-08-22T10:02:27.582Z,35.95
2022-08-22T10:05:06.763Z,35.84
2022-08-22T10:07:37.099Z,37.70
2022-08-22T10:10:09.536Z,39.04
2022-08-22T10:12:58.733Z,32.78
2022-08-22T10:15:42.084Z,32.18
2022-08-22T10:18:38.019Z,32.84
2022-08-22T10:21:25.087Z,30.96
2022-08-22T10:24:24.609Z,29.92
2022-08-22T10:27:02.128Z,30.70
2022-08-22T10:29:48.371Z,31.08
2022-08-22T10:32:21.205Z,29.73
2022-08-22T10:34:59.356Z,29.66
2022-08-22T10:37:32.607Z,32.20
2022-08-22T10:40:07.973Z,33.95
2022-08-22T10:42:49.647Z,33.92
2022-08-22T10:45:40.181Z,34.93
2022-08-22T10:48:10.325Z,34.86
2022-08-22T10:51:22.412Z,32.13
2022-08-22T10:54:14.749Z,36.04
2022-08-22T10:57:03.523Z,32.31
2022-08-22T10:59:43.936Z,35.92
2022-08-22T11:02:16.174Z,38.43
2022-08-22T11:05:05.098Z,38.94
2022-08-22T11:07:59.162Z,35.42
2022-08-22T11:10:55.060Z,35.97
2022-08-22T11:13:21.587Z,36.10
2022-08-22T11:16:30.318Z,33.98
2022-08-22T11:19:14.956Z,34.07
2022-08-22T11:21:51.258Z,34.00
2022-08-22T11:24:53.954Z,32.64
2022-08-22T11:27:34.507Z,34.07
2022-08-22T11:30:25.891Z,34.45
2022-08-22T11:33:00.073Z,34.27
2022-08-22T11:35:40.180Z,31.39
2022-08-22T11:38:32.592Z,31.08
2022-08-22T11:41:12.611Z,31.33
2022-08-22T11:44:22.710Z,32.45
2022-08-22T11:46:57.189Z,32.80
2022-08-22T11:49:42.892Z,32.91
2022-08-22T11:52:29.189Z,34.49
2022-08-22T11:55:34.518Z,34.75
2022-08-22T11:58:28.833Z,34.93
2022-08-22T12:01:17.216Z,34.52
2022-08-22T12:04:04.373Z,35.18
2022-08-22T12:06:46.841Z,35.90
2022-08-22T12:09:20.971Z,35.78
2022-08-22T12:12:12.594Z,35.10
2022-08-22T12:14:57.118Z,35.74
2022-08-22T12:17:55.698Z,35.60
2022-08-22T12:20:36.404Z,35.22
2022-08-22T12:23:40.776Z,33.97
2022-08-22T12:26:26.933Z,35.86
2022-08-22T12:29:34.001Z,33.61
2022-08-22T12:32:27.415Z,36.75
2022-08-22T12:35:14.582Z,34.65
2022-08-22T12:37:52.132Z,34.24
2022-08-22T12:40:27.164Z,36.84
2022-08-22T12:43:32.529Z,36.18
2022-08-22T12:46:05.030Z,35.10
2022-08-22T12:48:47.717Z,33.92
2022-08-22T12:51:38.970Z,34.75
2022-08-22T12:54:18.326Z,36.12
2022-08-22T12:57:25.260Z,36.79
2022-08-22T13:00:23.075Z,36.55
2022-08-22T13:02:54.904Z,36.07
2022-08-22T13:05:29.187Z,34.98
2022-08-22T13:08:04.092Z,34.52
2022-08-22T13:10:49.834Z,34.05
2022-08-22T13:13:31.348Z,35.26
2022-08-22T13:16:07.634Z,35.26
2022-08-22T13:18:47.900Z,34.48
2022-08-22T13:21:31.562Z,36.08
2022-08-22T13:24:16.937Z,37.47
2022-08-22T13:26:56.908Z,35.51
2022-08-22T13:29:43.454Z,35.16
2022-08-22T13:32:20.021Z,36.02
2022-08-22T13:34:53.950Z,35.59
2022-08-22T13:37:31.446Z,35.58
2022-08-22T13:40:03.743Z,34.99
2022-08-22T13:42:33.926Z,35.10
2022-08-22T13:45:15.474Z,35.56
2022-08-22T13:47:52.465Z,35.21
2022-08-22T13:50:26.948Z,37.11
2022-08-22T13:53:04.965Z,35.52
2022-08-22T13:55:49.927Z,35.19
2022-08-22T13:58:40.185Z,36.44
2022-08-22T14:01:39.661Z,35.95
2022-08-22T14:04:32.012Z,34.87
2022-08-22T14:07:03.313Z,35.32
2022-08-22T14:09:56.923Z,34.34
2022-08-22T14:12:30.232Z,33.64
2022-08-22T14:15:08.011Z,36.13
2022-08-22T14:17:45.004Z,34.60
2022-08-22T14:20:32.449Z,33.83
2022-08-22T14:23:06.752Z,33.11
2022-08-22T14:25:40.650Z,33.60
2022-08-22T14:28:28.788Z,33.32
2022-08-22T14:31:13.768Z,35.08
2022-08-22T14:33:54.826Z,34.57
2022-08-22T14:36:27.475Z,33.02
2022-08-22T14:39:23.123Z,35.57
2022-08-22T14:42:04.069Z,34.82
2022-08-22T14:44:52.617Z,33.46
2022-08-22T14:47:55.382Z,32.76
2022-08-22T14:50:42.294Z,32.94
2022-08-22T14:53:25.492Z,33.41
2022-08-22T14:56:02.993Z,33.70
2022-08-22T14:58:34.223Z,33.51
2022-08-22T15:01:13.000Z,34.67
2022-08-22T15:03:43.072Z,33.88
2022-08-22T15:06:13.511Z,32.45
2022-08-22T15:08:50.761Z,32.78
2022-08-22T15:11:17.269Z,33.79
2022-08-22T15:13:51.215Z,33.09
2022-08-22T15:16:23.444Z,33.25
2022-08-22T15:18:51.710Z,34.89
2022-08-22T15:21:24.348Z,33.40
2022-08-22T15:23:55.497Z,33.82
2022-08-22T15:26:55.457Z,33.78
2022-08-22T15:29:28.922Z,33.60
2022-08-22T15:32:00.871Z,33.45
2022-08-22T15:34:32.714Z,33.68
2022-08-22T15:37:17.430Z,33.54
2022-08-22T15:40:13.449Z,33.61
2022-08-22T15:42:47.264Z,33.97
2022-08-22T15:45:38.415Z,34.10
2022-08-22T15:48:23.709Z,34.54
2022-08-22T15:51:01.378Z,34.04
2022-08-22T15:53:59.670Z,34.56
2022-08-22T15:56:29.261Z,34.65
2022-08-22T15:59:53.367Z,34.56
2022-08-22T16:02:53.503Z,35.02
2022-08-22T16:05:43.141Z,35.27
2022-08-22T16:08:14.267Z,34.78
2022-08-22T16:11:02.767Z,34.55
2022-08-22T16:13:33.627Z,34.01
2022-08-22T16:16:02.357Z,33.28
2022-08-22T16:18:39.628Z,34.97
2022-08-22T16:21:17.350Z,33.76
2022-08-22T16:23:51.334Z,34.42
2022-08-22T16:26:24.745Z,35.13
2022-08-22T16:29:03.342Z,35.76
2022-08-22T16:31:31.695Z,34.81
2022-08-22T16:34:16.678Z,34.59
2022-08-22T16:37:08.124Z,35.10
2022-08-22T16:39:49.857Z,35.45
2022-08-22T16:42:18.347Z,34.71
2022-08-22T16:45:05.171Z,35.38
2022-08-22T16:47:40.158Z,36.42
2022-08-22T16:50:15.928Z,36.02
2022-08-22T16:52:56.998Z,36.36
2022-08-22T16:55:29.497Z,36.54
2022-08-22T16:58:07.420Z,37.41
2022-08-22T17:00:36.916Z,38.65
2022-08-22T17:03:40.737Z,38.01
2022-08-22T17:06:35.740Z,37.37
2022-08-22T17:09:43.418Z,37.35
2022-08-22T17:12:19.431Z,37.45
2022-08-22T17:14:54.867Z,37.91
2022-08-22T17:17:46.250Z,37.15
2022-08-22T17:20:30.258Z,39.03
2022-08-22T17:23:34.795Z,36.74
2022-08-22T17:26:04.181Z,37.88
2022-08-22T17:28:53.128Z,38.48
2022-08-22T17:31:36.453Z,37.20
2022-08-22T17:34:14.652Z,36.95
2022-08-22T17:37:03.632Z,37.58
2022-08-22T17:39:42.228Z,40.89
2022-08-22T17:42:20.880Z,38.19
2022-08-22T17:44:56.564Z,40.72
2022-08-22T17:47:41.853Z,44.94
2022-08-22T17:50:22.450Z,41.32
2022-08-22T17:52:52.878Z,40.52
2022-08-22T17:55:26.656Z,40.17
2022-08-22T17:58:10.848Z,42.55
2022-08-22T18:00:47.564Z,43.13
2022-08-22T18:03:31.593Z,42.93
2022-08-22T18:06:10.225Z,44.06
2022-08-22T18:11:52.094Z,48.63
2022-08-22T18:14:18.702Z,45.19
2022-08-22T18:16:50.233Z,43.63
2022-08-22T18:19:39.592Z,45.86
2022-08-22T18:22:08.637Z,44.46
2022-08-22T18:24:48.794Z,47.12
2022-08-22T18:27:38.136Z,45.02
2022-08-22T18:30:13.637Z,44.98
2022-08-22T18:33:24.311Z,45.94
2022-08-22T18:36:02.892Z,46.58
2022-08-22T18:38:45.447Z,46.94
2022-08-22T18:41:31.505Z,48.41
2022-08-22T18:43:59.160Z,47.55
2022-08-22T18:46:37.838Z,48.04
2022-08-22T18:49:22.286Z,50.34
2022-08-22T18:52:17.177Z,51.67
2022-08-22T18:54:46.765Z,51.61
2022-08-22T18:57:31.835Z,48.01
2022-08-22T19:00:19.071Z,48.86
2022-08-22T19:02:55.708Z,49.22
2022-08-22T19:05:47.262Z,47.53
2022-08-22T19:08:53.738Z,49.80
2022-08-22T19:11:36.385Z,51.76
2022-08-22T19:14:18.606Z,49.96
2022-08-22T19:17:18.123Z,49.05
2022-08-22T19:20:12.768Z,52.21
2022-08-22T19:22:39.976Z,50.58
2022-08-22T19:25:09.294Z,50.47
2022-08-22T19:27:44.606Z,54.04
2022-08-22T19:30:36.076Z,52.16
2022-08-22T19:33:05.809Z,50.59
2022-08-22T19:35:46.201Z,52.65
2022-08-22T19:38:12.953Z,51.49
2022-08-22T19:40:45.489Z,50.87
2022-08-22T19:43:30.216Z,50.22
2022-08-22T19:45:59.790Z,52.41
2022-08-22T19:48:31.492Z,51.11
2022-08-22T19:51:28.329Z,53.03
2022-08-22T19:54:16.253Z,51.23
2022-08-22T19:57:11.960Z,52.17
2022-08-22T19:59:51.098Z,51.47
2022-08-22T20:02:32.040Z,52.19
2022-08-22T20:05:10.784Z,53.70
2022-08-22T20:07:56.037Z,55.83
2022-08-22T20:10:34.466Z,53.77
2022-08-22T20:13:05.340Z,54.91
2022-08-22T20:15:55.306Z,53.01
2022-08-22T20:19:05.934Z,53.94
2022-08-22T20:21:51.456Z,56.26
2022-08-22T20:24:25.530Z,58.17
2022-08-22T20:27:13.349Z,54.19
2022-08-22T20:29:50.101Z,58.01
2022-08-22T20:32:19.775Z,57.63
2022-08-22T20:34:50.432Z,57.55
2022-08-22T20:37:39.850Z,57.24
2022-08-22T20:40:56.078Z,56.35
2022-08-22T20:43:45.868Z,55.94
2022-08-22T20:46:12.914Z,55.03
2022-08-22T20:48:43.740Z,55.73
2022-08-22T20:51:15.489Z,55.74
2022-08-22T20:53:42.330Z,56.02
2022-08-22T20:56:09.620Z,55.21
2022-08-22T20:58:40.055Z,56.08
2022-08-22T21:01:11.732Z,55.98
2022-08-22T21:03:44.132Z,57.56
2022-08-22T21:06:17.135Z,56.75
2022-08-22T21:08:45.883Z,57.87
2022-08-22T21:11:40.459Z,57.15
2022-08-22T21:14:25.103Z,58.51
2022-08-22T21:16:52.132Z,59.43
2022-08-22T21:19:29.667Z,56.20
2022-08-22T21:22:34.802Z,58.58
2022-08-22T21:25:01.476Z,56.72
2022-08-22T21:27:31.181Z,59.14
2022-08-22T21:30:00.227Z,58.49
2022-08-22T21:32:34.372Z,57.00
2022-08-22T21:35:03.888Z,58.33
2022-08-22T21:37:40.516Z,60.29
2022-08-22T21:40:19.521Z,60.13
2022-08-22T21:43:01.019Z,58.81
2022-08-22T21:45:52.834Z,57.76
2022-08-22T21:48:35.355Z,58.74
2022-08-22T21:51:27.057Z,58.37
2022-08-22T21:54:28.454Z,60.49
2022-08-22T21:56:58.725Z,58.05
2022-08-22T21:59:52.058Z,58.25
2022-08-22T22:02:37.625Z,57.52
2022-08-22T22:05:14.666Z,58.18
2022-08-22T22:07:43.501Z,59.34
2022-08-22T22:10:13.237Z,58.38
2022-08-22T22:12:42.664Z,58.43
2022-08-22T22:15:13.902Z,61.12
2022-08-22T22:17:40.533Z,59.55
2022-08-22T22:20:07.959Z,58.91
2022-08-22T22:22:34.614Z,59.02
2022-08-22T22:25:04.832Z,59.26
2022-08-22T22:27:31.816Z,60.62
2022-08-22T22:29:58.348Z,59.81
2022-08-22T22:32:24.958Z,61.19
2022-08-22T22:34:51.571Z,60.08
2022-08-22T22:37:18.493Z,59.55
2022-08-22T22:39:45.106Z,60.78
2022-08-22T22:42:11.650Z,62.95
2022-08-22T22:44:38.174Z,62.03
2022-08-22T22:47:05.043Z,62.19
2022-08-22T22:49:32.662Z,61.23
2022-08-22T22:52:00.431Z,61.00
2022-08-22T22:54:27.580Z,61.36
2022-08-22T22:56:57.155Z,60.51
2022-08-22T22:59:25.488Z,60.14
2022-08-22T23:02:13.047Z,60.54
2022-08-22T23:04:42.066Z,60.20
2022-08-22T23:07:10.095Z,60.65
2022-08-22T23:09:38.621Z,61.39
2022-08-22T23:12:12.436Z,61.22
2022-08-22T23:14:39.068Z,64.05
2022-08-22T23:17:05.623Z,63.37
2022-08-22T23:19:33.292Z,61.94
2022-08-22T23:22:01.012Z,61.87
2022-08-22T23:24:29.877Z,60.68
2022-08-22T23:26:57.378Z,61.56
2022-08-22T23:29:24.773Z,61.75
2022-08-22T23:31:52.902Z,61.27
2022-08-22T23:34:23.256Z,62.43
2022-08-22T23:36:52.043Z,61.97
2022-08-22T23:39:20.233Z,61.50
2022-08-22T23:41:47.415Z,61.35
2022-08-22T23:44:16.580Z,62.18
2022-08-22T23:46:43.711Z,63.25
2022-08-22T23:49:10.571Z,62.74
2022-08-22T23:51:37.375Z,63.15
2022-08-22T23:54:05.016Z,63.88
2022-08-22T23:56:34.690Z,64.23
2022-08-22T23:59:05.752Z,65.38
